createdAt,value
2022-08-21T00:00:36.861Z,15.1
2022-08-21T00:01:51.151Z,15
2022-08-21T00:03:05.545Z,15
2022-08-21T00:04:19.872Z,15.1
2022-08-21T00:05:34.179Z,15
2022-08-21T00:06:48.518Z,15
2022-08-21T00:08:02.803Z,14.9
2022-08-21T00:09:17.208Z,14.8
2022-08-21T00:10:31.530Z,14.8
2022-08-21T00:11:45.849Z,14.8
2022-08-21T00:13:00.160Z,15
2022-08-21T00:14:14.451Z,15
2022-08-21T00:15:28.859Z,15
2022-08-21T00:16:43.162Z,14.9
2022-08-21T00:17:57.494Z,14.9
2022-08-21T00:19:11.807Z,14.9
2022-08-21T00:20:26.090Z,15
2022-08-21T00:21:40.500Z,15
2022-08-21T00:22:54.829Z,15
2022-08-21T00:24:09.135Z,15
2022-08-21T00:25:23.460Z,14.9
2022-08-21T00:26:37.753Z,14.8
2022-08-21T00:27:52.153Z,14.8
2022-08-21T00:29:06.469Z,14.8
2022-08-21T00:30:20.848Z,14.7
2022-08-21T00:31:34.234Z,14.6
2022-08-21T00:32:48.646Z,14.6
2022-08-21T00:34:02.996Z,14.6
2022-08-21T00:35:16.349Z,14.5
2022-08-21T00:36:30.635Z,14.4
2022-08-21T00:37:45.033Z,14.4
2022-08-21T00:38:59.351Z,14.5
2022-08-21T00:40:13.665Z,14.6
2022-08-21T00:41:27.998Z,14.6
2022-08-21T00:42:42.284Z,14.7
2022-08-21T00:43:56.678Z,14.6
2022-08-21T00:45:11.010Z,14.6
2022-08-21T00:46:25.323Z,14.6
2022-08-21T00:47:39.643Z,14.5
2022-08-21T00:48:53.931Z,14.5
2022-08-21T00:50:08.333Z,14.5
2022-08-21T00:51:22.000Z,14.6
2022-08-21T00:52:36.971Z,14.6
2022-08-21T00:53:51.290Z,14.6
2022-08-21T00:55:05.574Z,14.6
2022-08-21T00:56:19.996Z,14.6
2022-08-21T00:57:34.298Z,14.6
2022-08-21T00:58:48.620Z,14.6
2022-08-21T01:00:02.950Z,14.6
2022-08-21T01:01:17.221Z,14.6
2022-08-21T01:02:31.642Z,14.5
2022-08-21T01:03:45.949Z,14.5
2022-08-21T01:05:00.281Z,14.4
2022-08-21T01:06:14.649Z,14.4
2022-08-21T01:07:28.002Z,14.3
2022-08-21T01:08:42.320Z,14.3
2022-08-21T01:09:56.637Z,14.3
2022-08-21T01:11:10.953Z,14.4
2022-08-21T01:12:25.239Z,14.4
2022-08-21T01:13:39.664Z,14.3
2022-08-21T01:16:08.284Z,14.4
2022-08-21T01:17:22.602Z,14.4
2022-08-21T01:18:36.891Z,14.4
2022-08-21T01:19:51.306Z,14.3
2022-08-21T01:21:05.629Z,14.2
2022-08-21T01:22:19.930Z,14.2
2022-08-21T01:23:34.260Z,14.3
2022-08-21T01:24:48.536Z,14.2
2022-08-21T01:27:17.264Z,14.2
2022-08-21T01:28:31.583Z,14.2
2022-08-21T01:29:45.901Z,14.3
2022-08-21T01:31:00.202Z,14.3
2022-08-21T01:32:14.613Z,14.3
2022-08-21T01:33:28.917Z,14.3
2022-08-21T01:34:43.240Z,14.3
2022-08-21T01:35:57.551Z,14.2
2022-08-21T01:37:11.852Z,14.2
2022-08-21T01:38:26.312Z,14.1
2022-08-21T01:39:40.655Z,14.1
2022-08-21T01:40:54.009Z,14.1
2022-08-21T01:42:08.304Z,14.1
2022-08-21T01:43:22.695Z,14.1
2022-08-21T01:44:37.014Z,14
2022-08-21T01:45:51.345Z,13.9
2022-08-21T01:47:05.670Z,13.8
2022-08-21T01:48:19.953Z,13.7
2022-08-21T01:49:34.363Z,13.5
2022-08-21T01:50:48.672Z,13.5
2022-08-21T01:52:02.993Z,13.5
2022-08-21T01:53:17.316Z,13.7
2022-08-21T01:54:31.592Z,13.8
2022-08-21T01:55:45.995Z,13.7
2022-08-21T01:57:00.314Z,13.7
2022-08-21T01:58:14.643Z,13.5
2022-08-21T01:59:28.950Z,13.5
2022-08-21T02:00:43.248Z,13.5
2022-08-21T02:01:57.645Z,13.5
2022-08-21T02:03:11.980Z,13.5
2022-08-21T02:04:26.289Z,13.5
2022-08-21T02:05:40.618Z,13.6
2022-08-21T02:06:54.901Z,13.6
2022-08-21T02:08:09.314Z,13.6
2022-08-21T02:09:23.630Z,13.6
2022-08-21T02:10:37.941Z,13.6
2022-08-21T02:11:52.317Z,13.5
2022-08-21T02:13:05.720Z,13.5
2022-08-21T02:14:20.043Z,13.5
2022-08-21T02:15:33.396Z,13.5
2022-08-21T02:16:47.681Z,13.6
2022-08-21T02:18:02.105Z,13.6
2022-08-21T02:19:16.429Z,13.6
2022-08-21T02:20:30.735Z,13.6
2022-08-21T02:21:45.051Z,13.6
2022-08-21T02:22:59.344Z,13.6
2022-08-21T02:24:13.755Z,13.6
2022-08-21T02:25:28.066Z,13.5
2022-08-21T02:26:42.394Z,13.5
2022-08-21T02:27:56.704Z,13.5
2022-08-21T02:29:10.994Z,13.4
2022-08-21T02:30:25.397Z,13.3
2022-08-21T02:31:39.708Z,13.3
2022-08-21T02:32:54.042Z,13.3
2022-08-21T02:34:08.358Z,13.3
2022-08-21T02:35:22.632Z,13.4
2022-08-21T02:36:37.057Z,13.5
2022-08-21T02:37:51.376Z,13.5
2022-08-21T02:39:05.680Z,13.5
2022-08-21T02:40:20.006Z,13.5
2022-08-21T02:41:34.288Z,13.5
2022-08-21T02:42:48.695Z,13.5
2022-08-21T02:44:03.014Z,13.4
2022-08-21T02:45:17.343Z,13.4
2022-08-21T02:46:31.712Z,13.3
2022-08-21T02:47:45.107Z,13.2
2022-08-21T02:48:59.455Z,13.1
2022-08-21T02:50:12.797Z,13.1
2022-08-21T02:51:27.071Z,13.2
2022-08-21T02:52:41.493Z,13.2
2022-08-21T02:53:55.815Z,13.2
2022-08-21T02:55:10.122Z,13.3
2022-08-21T02:56:24.445Z,13.3
2022-08-21T02:57:38.732Z,13.4
2022-08-21T02:58:53.149Z,13.5
2022-08-21T03:00:07.471Z,13.5
2022-08-21T03:01:21.780Z,13.5
2022-08-21T03:02:36.089Z,13.5
2022-08-21T03:03:50.392Z,13.5
2022-08-21T03:05:04.792Z,13.6
2022-08-21T03:06:19.102Z,13.6
2022-08-21T03:07:33.437Z,13.6
2022-08-21T03:10:02.036Z,13.7
2022-08-21T03:11:16.449Z,13.7
2022-08-21T03:12:30.768Z,13.7
2022-08-21T03:13:45.087Z,13.6
2022-08-21T03:14:59.407Z,13.6
2022-08-21T03:16:13.677Z,13.6
2022-08-21T03:17:28.083Z,13.5
2022-08-21T03:18:42.402Z,13.5
2022-08-21T03:19:56.721Z,13.6
2022-08-21T03:21:11.105Z,13.6
2022-08-21T03:22:24.455Z,13.6
2022-08-21T03:23:38.789Z,13.5
2022-08-21T03:24:53.104Z,13.5
2022-08-21T03:26:07.417Z,13.5
2022-08-21T03:27:21.714Z,13.5
2022-08-21T03:28:36.054Z,13.4
2022-08-21T03:29:50.318Z,13.5
2022-08-21T03:31:04.532Z,13.5
2022-08-21T03:32:18.765Z,13.5
2022-08-21T03:33:33.002Z,13.5
2022-08-21T03:34:47.299Z,13.5
2022-08-21T03:36:01.541Z,13.5
2022-08-21T03:37:15.779Z,13.5
2022-08-21T03:38:30.004Z,13.4
2022-08-21T03:39:44.241Z,13.4
2022-08-21T03:40:58.536Z,13.4
2022-08-21T03:42:12.789Z,13.3
2022-08-21T03:43:27.025Z,13.2
2022-08-21T03:44:41.246Z,13.1
2022-08-21T03:45:55.477Z,13
2022-08-21T03:47:09.773Z,13
2022-08-21T03:48:24.033Z,12.9
2022-08-21T03:49:38.267Z,12.9
2022-08-21T03:50:52.487Z,12.9
2022-08-21T03:52:06.714Z,12.8
2022-08-21T03:53:21.073Z,12.7
2022-08-21T03:54:35.375Z,12.7
2022-08-21T03:55:48.679Z,12.6
2022-08-21T03:57:01.924Z,12.5
2022-08-21T03:58:16.166Z,12.5
2022-08-21T03:59:30.385Z,12.5
2022-08-21T04:00:44.630Z,12.6
2022-08-21T04:01:58.856Z,12.5
2022-08-21T04:03:13.164Z,12.5
2022-08-21T04:04:27.398Z,12.5
2022-08-21T04:05:41.636Z,12.5
2022-08-21T04:06:55.858Z,12.5
2022-08-21T04:08:10.106Z,12.5
2022-08-21T04:09:24.404Z,12.5
2022-08-21T04:10:38.638Z,12.5
2022-08-21T04:11:52.870Z,12.5
2022-08-21T04:13:07.114Z,12.5
2022-08-21T04:14:21.331Z,12.6
2022-08-21T04:15:35.647Z,12.7
2022-08-21T04:16:49.885Z,12.7
2022-08-21T04:18:04.126Z,12.8
2022-08-21T04:19:18.342Z,12.8
2022-08-21T04:20:32.569Z,12.6
2022-08-21T04:21:46.873Z,12.6
2022-08-21T04:23:01.121Z,12.6
2022-08-21T04:24:15.361Z,12.6
2022-08-21T04:25:29.595Z,12.8
2022-08-21T04:26:43.826Z,12.8
2022-08-21T04:27:58.131Z,12.9
2022-08-21T04:29:12.372Z,12.8
2022-08-21T04:30:26.605Z,12.8
2022-08-21T04:31:40.827Z,12.8
2022-08-21T04:32:55.048Z,12.7
2022-08-21T04:34:09.360Z,12.7
2022-08-21T04:35:23.607Z,12.7
2022-08-21T04:36:37.834Z,12.7
2022-08-21T04:37:52.062Z,12.7
2022-08-21T04:39:06.300Z,12.7
2022-08-21T04:40:20.599Z,12.7
2022-08-21T04:41:34.856Z,12.7
2022-08-21T04:42:49.141Z,12.7
2022-08-21T04:44:02.482Z,12.7
2022-08-21T04:45:16.770Z,12.7
2022-08-21T04:46:31.064Z,12.7
2022-08-21T04:47:44.364Z,12.7
2022-08-21T04:48:58.595Z,12.8
2022-08-21T04:50:12.888Z,12.8
2022-08-21T04:51:27.138Z,12.8
2022-08-21T04:52:41.374Z,12.9
2022-08-21T04:53:55.597Z,12.9
2022-08-21T04:55:09.835Z,13
2022-08-21T04:56:24.146Z,13
2022-08-21T04:57:38.372Z,13
2022-08-21T04:58:52.621Z,13
2022-08-21T05:00:06.851Z,13.1
2022-08-21T05:01:21.079Z,13.1
2022-08-21T05:02:35.374Z,13.1
2022-08-21T05:03:49.613Z,13.1
2022-08-21T05:05:03.859Z,13.1
2022-08-21T05:06:18.079Z,13.1
2022-08-21T05:07:32.313Z,13.1
2022-08-21T05:08:46.613Z,13
2022-08-21T05:10:00.869Z,13
2022-08-21T05:11:15.097Z,13
2022-08-21T05:12:29.331Z,13.1
2022-08-21T05:13:43.550Z,13.1
2022-08-21T05:14:57.851Z,13.1
2022-08-21T05:16:12.099Z,13.1
2022-08-21T05:17:26.340Z,13.1
2022-08-21T05:18:40.626Z,13.2
2022-08-21T05:19:53.924Z,13.2
2022-08-21T05:21:08.155Z,13.3
2022-08-21T05:22:22.403Z,13.4
2022-08-21T05:23:36.623Z,13.5
2022-08-21T05:24:50.852Z,13.6
2022-08-21T05:26:05.166Z,13.7
2022-08-21T05:27:19.418Z,13.7
2022-08-21T05:28:33.628Z,13.8
2022-08-21T05:29:47.863Z,13.9
2022-08-21T05:31:02.089Z,13.9
2022-08-21T05:32:16.411Z,13.8
2022-08-21T05:33:30.655Z,13.8
2022-08-21T05:34:44.875Z,13.8
2022-08-21T05:35:59.115Z,13.8
2022-08-21T05:37:13.345Z,13.9
2022-08-21T05:38:27.642Z,14
2022-08-21T05:39:41.895Z,14
2022-08-21T05:40:56.124Z,14.1
2022-08-21T05:42:10.341Z,14.2
2022-08-21T05:43:24.574Z,14.2
2022-08-21T05:44:38.880Z,14.3
2022-08-21T05:45:53.132Z,14.3
2022-08-21T05:47:07.367Z,14.3
2022-08-21T05:48:21.588Z,14.4
2022-08-21T05:49:35.822Z,14.5
2022-08-21T05:50:50.188Z,14.6
2022-08-21T05:52:04.479Z,14.6
2022-08-21T05:53:17.769Z,14.6
2022-08-21T05:54:31.993Z,14.7
2022-08-21T05:55:46.296Z,14.8
2022-08-21T05:57:00.554Z,14.8
2022-08-21T05:58:14.774Z,14.9
2022-08-21T05:59:29.002Z,15
2022-08-21T06:00:43.235Z,15.1
2022-08-21T06:01:57.550Z,15.2
2022-08-21T06:03:11.785Z,15.3
2022-08-21T06:04:26.012Z,15.5
2022-08-21T06:05:40.244Z,15.6
2022-08-21T06:06:54.487Z,15.7
2022-08-21T06:08:08.778Z,15.7
2022-08-21T06:09:23.020Z,15.8
2022-08-21T06:10:37.264Z,15.9
2022-08-21T06:11:51.490Z,16
2022-08-21T06:13:05.722Z,16
2022-08-21T06:14:20.019Z,16.1
2022-08-21T06:15:34.275Z,16.1
2022-08-21T06:16:48.492Z,16.2
2022-08-21T06:18:02.718Z,16.2
2022-08-21T06:19:16.953Z,16.2
2022-08-21T06:20:31.263Z,16.2
2022-08-21T06:21:45.500Z,16.1
2022-08-21T06:22:59.743Z,16.1
2022-08-21T06:24:14.023Z,16.1
2022-08-21T06:25:27.357Z,16.2
2022-08-21T06:26:41.645Z,16.2
2022-08-21T06:27:54.956Z,16.4
2022-08-21T06:29:09.173Z,16.5
2022-08-21T06:30:23.489Z,16.7
2022-08-21T06:31:37.735Z,16.8
2022-08-21T06:32:51.955Z,17
2022-08-21T06:34:06.186Z,17.1
2022-08-21T06:35:20.429Z,17.1
2022-08-21T06:36:34.715Z,17.2
2022-08-21T06:37:48.974Z,17.2
2022-08-21T06:39:03.201Z,17.3
2022-08-21T06:40:17.422Z,17.4
2022-08-21T06:41:31.662Z,17.6
2022-08-21T06:42:45.966Z,17.5
2022-08-21T06:44:00.208Z,17.5
2022-08-21T06:45:14.432Z,17.3
2022-08-21T06:46:28.673Z,17.1
2022-08-21T06:47:42.895Z,17
2022-08-21T06:48:57.207Z,17.2
2022-08-21T06:50:11.455Z,17.2
2022-08-21T06:51:25.678Z,17.3
2022-08-21T06:52:39.912Z,17.4
2022-08-21T06:53:54.132Z,17.5
2022-08-21T06:55:08.440Z,17.5
2022-08-21T06:56:22.694Z,17.5
2022-08-21T06:57:36.922Z,17.6
2022-08-21T06:58:51.208Z,17.7
2022-08-21T07:00:04.551Z,17.9
2022-08-21T07:01:18.833Z,17.9
2022-08-21T07:02:32.124Z,18
2022-08-21T07:03:46.365Z,18.2
2022-08-21T07:05:00.666Z,18.4
2022-08-21T07:06:14.916Z,18.5
2022-08-21T07:07:29.149Z,18.6
2022-08-21T07:08:43.369Z,18.8
2022-08-21T07:09:57.598Z,18.8
2022-08-21T07:11:11.904Z,18.8
2022-08-21T07:12:26.157Z,18.9
2022-08-21T07:13:40.382Z,19.1
2022-08-21T07:14:54.599Z,19
2022-08-21T07:16:08.831Z,19.1
2022-08-21T07:17:23.153Z,19.1
2022-08-21T07:18:37.392Z,19.1
2022-08-21T07:19:51.624Z,19.1
2022-08-21T07:21:05.854Z,19.3
2022-08-21T07:22:20.073Z,19.7
2022-08-21T07:23:34.374Z,19.9
2022-08-21T07:24:48.623Z,20.3
2022-08-21T07:26:02.850Z,20.2
2022-08-21T07:27:17.083Z,20.2
2022-08-21T07:28:31.312Z,19.7
2022-08-21T07:29:45.631Z,19.5
2022-08-21T07:30:59.861Z,19.6
2022-08-21T07:32:14.096Z,20.1
2022-08-21T07:33:28.394Z,20.2
2022-08-21T07:34:41.692Z,20
2022-08-21T07:35:55.936Z,20.1
2022-08-21T07:37:10.164Z,20.6
2022-08-21T07:38:24.394Z,20.3
2022-08-21T07:39:38.613Z,20
2022-08-21T07:40:52.935Z,20
2022-08-21T07:42:07.160Z,20.3
2022-08-21T07:43:21.411Z,20.4
2022-08-21T07:44:35.622Z,20.3
2022-08-21T07:45:49.856Z,20.2
2022-08-21T07:47:04.161Z,20
2022-08-21T07:48:18.406Z,20.2
2022-08-21T07:49:32.635Z,20.2
2022-08-21T07:50:46.872Z,20.6
2022-08-21T07:52:01.100Z,20.6
2022-08-21T07:53:15.414Z,20.6
2022-08-21T07:54:29.655Z,20.6
2022-08-21T07:55:43.889Z,20.9
2022-08-21T07:56:58.119Z,21
2022-08-21T07:58:12.349Z,21.1
2022-08-21T07:59:26.642Z,21
2022-08-21T08:00:40.887Z,21
2022-08-21T08:01:55.128Z,21.5
2022-08-21T08:03:09.358Z,22
2022-08-21T08:04:23.588Z,22.6
2022-08-21T08:05:37.933Z,22.9
2022-08-21T08:06:52.239Z,23.2
2022-08-21T08:08:05.540Z,22.6
2022-08-21T08:09:18.790Z,22.3
2022-08-21T08:10:33.035Z,22.2
2022-08-21T08:11:47.250Z,22.4
2022-08-21T08:13:01.484Z,22
2022-08-21T08:14:15.712Z,22.1
2022-08-21T08:15:30.017Z,22.1
2022-08-21T08:16:44.278Z,22
2022-08-21T08:17:58.486Z,22.5
2022-08-21T08:19:12.719Z,22.3
2022-08-21T08:20:26.959Z,22.1
2022-08-21T08:21:41.269Z,21.9
2022-08-21T08:22:55.499Z,22.1
2022-08-21T08:24:09.735Z,22.5
2022-08-21T08:25:23.964Z,22.8
2022-08-21T08:26:38.202Z,23.1
2022-08-21T08:27:52.508Z,23
2022-08-21T08:29:06.747Z,22.9
2022-08-21T08:30:20.968Z,22.6
2022-08-21T08:31:35.212Z,22.3
2022-08-21T08:32:49.436Z,22
2022-08-21T08:34:03.732Z,21.9
2022-08-21T08:35:17.990Z,22.1
2022-08-21T08:36:32.218Z,22.1
2022-08-21T08:37:46.450Z,22.1
2022-08-21T08:39:00.676Z,22.2
2022-08-21T08:40:14.984Z,22.1
2022-08-21T08:41:29.222Z,21.8
2022-08-21T08:42:43.463Z,21.7
2022-08-21T08:43:57.683Z,22.1
2022-08-21T08:45:11.906Z,22.9
2022-08-21T08:46:26.222Z,23.1
2022-08-21T08:47:40.463Z,24.2
2022-08-21T08:48:54.694Z,24.5
2022-08-21T08:50:08.917Z,24.5
2022-08-21T08:51:23.162Z,24.3
2022-08-21T08:52:37.469Z,24
2022-08-21T08:53:51.701Z,24.5
2022-08-21T08:55:05.983Z,24.2
2022-08-21T08:56:19.332Z,23.9
2022-08-21T08:57:33.637Z,23.8
2022-08-21T08:58:47.923Z,23.7
2022-08-21T09:00:01.208Z,24.1
2022-08-21T09:01:15.452Z,24
2022-08-21T09:02:29.743Z,24.4
2022-08-21T09:03:44.001Z,24.4
2022-08-21T09:04:58.232Z,25
2022-08-21T09:06:12.451Z,25
2022-08-21T09:07:26.680Z,25.1
2022-08-21T09:08:40.989Z,24.2
2022-08-21T09:09:55.240Z,24.8
2022-08-21T09:11:09.464Z,25.3
2022-08-21T09:12:23.692Z,26
2022-08-21T09:13:37.929Z,25.8
2022-08-21T09:14:52.221Z,24.4
2022-08-21T09:16:06.474Z,24.1
2022-08-21T09:17:20.717Z,24.1
2022-08-21T09:18:34.945Z,24.8
2022-08-21T09:19:49.164Z,25.3
2022-08-21T09:21:03.475Z,24.6
2022-08-21T09:22:17.719Z,24.1
2022-08-21T09:23:31.952Z,24.7
2022-08-21T09:24:46.189Z,24.8
2022-08-21T09:26:00.410Z,24.8
2022-08-21T09:27:14.722Z,25.3
2022-08-21T09:28:28.959Z,25.3
2022-08-21T09:29:43.196Z,25.1
2022-08-21T09:30:57.467Z,25.1
2022-08-21T09:32:10.782Z,25.9
2022-08-21T09:33:25.018Z,26.3
2022-08-21T09:34:39.254Z,26
2022-08-21T09:35:53.480Z,24.4
2022-08-21T09:37:07.708Z,23.4
2022-08-21T09:38:22.020Z,23.2
2022-08-21T09:39:36.258Z,23.1
2022-08-21T09:40:50.494Z,22.7
2022-08-21T09:42:04.723Z,22.6
2022-08-21T09:43:18.942Z,22.8
2022-08-21T09:44:33.266Z,22.7
2022-08-21T09:45:47.495Z,22.9
2022-08-21T09:47:01.741Z,23
2022-08-21T09:48:15.968Z,23.7
2022-08-21T09:49:30.185Z,24.4
2022-08-21T09:50:44.491Z,24.5
2022-08-21T09:51:58.736Z,23.7
2022-08-21T09:53:12.980Z,23.5
2022-08-21T09:54:27.198Z,23.7
2022-08-21T09:55:41.430Z,23.4
2022-08-21T09:56:55.745Z,23.3
2022-08-21T09:58:09.985Z,23.2
2022-08-21T09:59:24.206Z,23.7
2022-08-21T10:00:38.434Z,24.6
2022-08-21T10:01:52.670Z,24.7
2022-08-21T10:03:07.045Z,25
2022-08-21T10:04:21.329Z,24.8
2022-08-21T10:05:34.630Z,25.3
2022-08-21T10:06:48.845Z,25.3
2022-08-21T10:08:03.148Z,25.6
2022-08-21T10:09:17.400Z,25.1
2022-08-21T10:10:31.629Z,25.1
2022-08-21T10:11:45.868Z,25.4
2022-08-21T10:13:00.094Z,25.5
2022-08-21T10:14:14.387Z,25.6
2022-08-21T10:15:28.651Z,26.3
2022-08-21T10:16:42.869Z,27.3
2022-08-21T10:17:57.107Z,27.3
2022-08-21T10:19:11.325Z,26
2022-08-21T10:20:25.647Z,26
2022-08-21T10:21:39.871Z,26.2
2022-08-21T10:22:54.114Z,25.6
2022-08-21T10:24:08.335Z,26.7
2022-08-21T10:25:22.574Z,27
2022-08-21T10:26:36.873Z,27.8
2022-08-21T10:27:51.121Z,27.3
2022-08-21T10:29:05.354Z,27.6
2022-08-21T10:30:19.572Z,28.8
2022-08-21T10:31:33.803Z,28.6
2022-08-21T10:32:48.117Z,27.6
2022-08-21T10:34:02.359Z,26.1
2022-08-21T10:35:16.601Z,24.8
2022-08-21T10:36:30.880Z,24.2
2022-08-21T10:37:44.235Z,24.1
2022-08-21T10:40:12.805Z,24.4
2022-08-21T10:41:26.107Z,24.5
2022-08-21T10:42:40.418Z,25.2
2022-08-21T10:43:54.665Z,25.3
2022-08-21T10:45:08.894Z,25
2022-08-21T10:46:23.131Z,26
2022-08-21T10:47:37.346Z,26.7
2022-08-21T10:48:51.655Z,25.3
2022-08-21T10:50:05.891Z,24.8
2022-08-21T10:51:20.129Z,24.8
2022-08-21T10:52:34.360Z,24.8
2022-08-21T10:53:48.589Z,25.2
2022-08-21T10:55:02.906Z,25.7
2022-08-21T10:56:17.148Z,25.9
2022-08-21T10:57:31.363Z,25.5
2022-08-21T10:58:45.610Z,25.8
2022-08-21T10:59:59.834Z,26.2
2022-08-21T11:01:14.128Z,25.5
2022-08-21T11:02:28.382Z,25.2
2022-08-21T11:03:42.604Z,24.9
2022-08-21T11:04:56.837Z,25.6
2022-08-21T11:06:11.069Z,26.5
2022-08-21T11:07:25.385Z,27.4
2022-08-21T11:08:39.616Z,28.6
2022-08-21T11:09:53.862Z,29
2022-08-21T11:11:08.089Z,28
2022-08-21T11:12:22.363Z,26
2022-08-21T11:13:36.670Z,26
2022-08-21T11:14:50.974Z,26.6
2022-08-21T11:16:04.270Z,27
2022-08-21T11:17:18.487Z,27.9
2022-08-21T11:18:32.794Z,27.1
2022-08-21T11:21:01.284Z,26.8
2022-08-21T11:22:15.498Z,27.5
2022-08-21T11:23:29.742Z,27.7
2022-08-21T11:24:44.035Z,28
2022-08-21T11:25:58.288Z,28.1
2022-08-21T11:27:12.522Z,28.8
2022-08-21T11:28:26.736Z,28.4
2022-08-21T11:29:40.983Z,27.9
2022-08-21T11:30:55.282Z,29.1
2022-08-21T11:32:09.515Z,28.7
2022-08-21T11:33:23.752Z,27.7
2022-08-21T11:34:37.979Z,26.3
2022-08-21T11:35:52.226Z,25.7
2022-08-21T11:37:06.512Z,26.2
2022-08-21T11:39:34.988Z,25.6
2022-08-21T11:40:49.220Z,25.7
2022-08-21T11:42:03.454Z,27.1
2022-08-21T11:43:17.771Z,28.7
2022-08-21T11:44:32.008Z,29.4
2022-08-21T11:45:46.242Z,28.7
2022-08-21T11:47:00.528Z,27
2022-08-21T11:48:13.840Z,26.8
2022-08-21T11:49:28.064Z,27.6
2022-08-21T11:50:42.294Z,27.7
2022-08-21T11:51:56.525Z,26.8
2022-08-21T11:53:10.770Z,26.5
2022-08-21T11:54:25.078Z,27.3
2022-08-21T11:55:39.308Z,27.7
2022-08-21T11:56:53.541Z,27.6
2022-08-21T11:58:07.786Z,28
2022-08-21T11:59:22.007Z,27.9
2022-08-21T12:00:36.304Z,28.6
2022-08-21T12:01:50.563Z,29.1
2022-08-21T12:03:04.779Z,30.3
2022-08-21T12:04:19.012Z,30.4
2022-08-21T12:05:33.243Z,29.5
2022-08-21T12:06:47.540Z,29.5
2022-08-21T12:08:01.792Z,30.6
2022-08-21T12:09:16.025Z,31.7
2022-08-21T12:10:30.255Z,30.7
2022-08-21T12:11:44.491Z,30.7
2022-08-21T12:12:58.787Z,30.3
2022-08-21T12:14:13.032Z,29.8
2022-08-21T12:15:27.262Z,28.3
2022-08-21T12:16:41.502Z,28.6
2022-08-21T12:17:55.736Z,27.9
2022-08-21T12:19:10.083Z,26.8
2022-08-21T12:20:24.377Z,26.9
2022-08-21T12:21:37.722Z,27.3
2022-08-21T12:22:51.034Z,27.6
2022-08-21T12:24:05.271Z,28.4
2022-08-21T12:25:19.505Z,29.3
2022-08-21T12:27:47.954Z,27.3
2022-08-21T12:29:02.257Z,28.8
2022-08-21T12:30:16.507Z,29.2
2022-08-21T12:31:30.742Z,28.9
2022-08-21T12:32:44.965Z,29.4
2022-08-21T12:33:59.199Z,28.9
2022-08-21T12:35:13.499Z,28.1
2022-08-21T12:36:27.740Z,28.8
2022-08-21T12:37:41.981Z,29.5
2022-08-21T12:38:56.208Z,29.7
2022-08-21T12:40:10.440Z,29.1
2022-08-21T12:41:24.743Z,29.1
2022-08-21T12:42:38.986Z,28.9
2022-08-21T12:43:53.220Z,27.6
2022-08-21T12:45:07.462Z,27.7
2022-08-21T12:46:21.685Z,28.2
2022-08-21T12:47:35.986Z,28.9
2022-08-21T12:48:50.233Z,28
2022-08-21T12:50:04.468Z,27.7
2022-08-21T12:51:18.689Z,27.1
2022-08-21T12:52:32.929Z,26.9
2022-08-21T12:53:47.284Z,26.9
2022-08-21T12:55:01.582Z,25.9
2022-08-21T12:56:14.878Z,25.8
2022-08-21T12:57:29.111Z,25.9
2022-08-21T12:58:43.405Z,26
2022-08-21T12:59:57.643Z,26.1
2022-08-21T13:01:11.884Z,26.1
2022-08-21T13:02:26.114Z,26.6
2022-08-21T13:03:40.335Z,27
2022-08-21T13:04:54.645Z,26.7
2022-08-21T13:06:08.886Z,27.5
2022-08-21T13:07:23.120Z,26.9
2022-08-21T13:08:37.359Z,26.6
2022-08-21T13:09:51.586Z,26.4
2022-08-21T13:11:05.900Z,25.9
2022-08-21T13:12:20.145Z,25.5
2022-08-21T13:13:34.375Z,25.7
2022-08-21T13:14:48.602Z,25.9
2022-08-21T13:16:02.817Z,24.9
2022-08-21T13:17:17.121Z,25.1
2022-08-21T13:18:31.385Z,25.5
2022-08-21T13:19:45.604Z,25.5
2022-08-21T13:20:59.831Z,25.5
2022-08-21T13:22:14.060Z,25.7
2022-08-21T13:23:28.362Z,26
2022-08-21T13:24:42.605Z,25.9
2022-08-21T13:25:56.846Z,26.1
2022-08-21T13:27:11.135Z,26.5
2022-08-21T13:28:24.440Z,26.1
2022-08-21T13:29:38.674Z,26.5
2022-08-21T13:30:52.906Z,26.7
2022-08-21T13:32:07.141Z,26.2
2022-08-21T13:33:21.378Z,26.3
2022-08-21T13:34:35.684Z,26.5
2022-08-21T13:35:49.925Z,25.8
2022-08-21T13:37:04.143Z,26.9
2022-08-21T13:38:18.387Z,26.9
2022-08-21T13:39:32.604Z,27.3
2022-08-21T13:40:46.911Z,27.5
2022-08-21T13:42:01.159Z,27.9
2022-08-21T13:43:15.382Z,27.6
2022-08-21T13:44:29.625Z,27.6
2022-08-21T13:45:43.848Z,27.8
2022-08-21T13:46:58.149Z,28.2
2022-08-21T13:48:12.399Z,28.6
2022-08-21T13:49:26.634Z,28.2
2022-08-21T13:50:40.863Z,28
2022-08-21T13:51:55.083Z,28.8
2022-08-21T13:53:09.391Z,29.6
2022-08-21T13:54:23.632Z,30.2
2022-08-21T13:55:37.869Z,30.9
2022-08-21T13:56:52.107Z,30
2022-08-21T13:58:06.324Z,29.1
2022-08-21T13:59:20.687Z,30.6
2022-08-21T14:00:34.977Z,30.7
2022-08-21T14:01:48.287Z,30.6
2022-08-21T14:03:02.504Z,31.8
2022-08-21T14:04:16.809Z,31.8
2022-08-21T14:05:31.055Z,30.1
2022-08-21T14:06:45.295Z,30.3
2022-08-21T14:07:59.531Z,31.1
2022-08-21T14:09:13.761Z,31.1
2022-08-21T14:10:28.070Z,31.6
2022-08-21T14:11:42.311Z,31.5
2022-08-21T14:12:56.525Z,30.8
2022-08-21T14:14:10.759Z,29.2
2022-08-21T14:15:24.997Z,28.5
2022-08-21T14:16:39.301Z,28.7
2022-08-21T14:17:53.549Z,29.6
2022-08-21T14:19:07.769Z,29.9
2022-08-21T14:20:22.007Z,29.7
2022-08-21T14:21:36.248Z,30.4
2022-08-21T14:22:50.536Z,30
2022-08-21T14:25:19.118Z,29.8
2022-08-21T14:26:33.342Z,29.7
2022-08-21T14:27:47.579Z,29.8
2022-08-21T14:29:01.878Z,29.9
2022-08-21T14:30:16.139Z,29.9
2022-08-21T14:31:30.370Z,29.9
2022-08-21T14:32:44.655Z,30.2
2022-08-21T14:33:57.989Z,31.1
2022-08-21T14:35:12.279Z,30.9
2022-08-21T14:36:26.567Z,29.7
2022-08-21T14:37:39.864Z,29.1
2022-08-21T14:38:54.159Z,28.9
2022-08-21T14:40:08.419Z,29
2022-08-21T14:41:22.651Z,29.1
2022-08-21T14:42:36.872Z,29.5
2022-08-21T14:43:51.107Z,30.3
2022-08-21T14:45:05.398Z,30.7
2022-08-21T14:46:19.656Z,31.2
2022-08-21T14:47:33.880Z,30.8
2022-08-21T14:48:48.106Z,30.6
2022-08-21T14:50:02.344Z,30.5
2022-08-21T14:51:16.658Z,29.2
2022-08-21T14:52:30.895Z,29.7
2022-08-21T14:53:45.126Z,29.7
2022-08-21T14:54:59.360Z,29.3
2022-08-21T14:56:13.580Z,30.3
2022-08-21T14:57:27.886Z,31.4
2022-08-21T14:58:42.137Z,31.2
2022-08-21T14:59:56.364Z,31
2022-08-21T15:01:10.601Z,30.3
2022-08-21T15:02:24.830Z,31.3
2022-08-21T15:03:39.143Z,32.2
2022-08-21T15:04:53.383Z,32.3
2022-08-21T15:06:07.613Z,32
2022-08-21T15:07:21.847Z,31.3
2022-08-21T15:08:36.126Z,30.8
2022-08-21T15:09:50.442Z,29.7
2022-08-21T15:11:04.734Z,29.2
2022-08-21T15:12:18.020Z,28.6
2022-08-21T15:13:32.250Z,29.6
2022-08-21T15:14:46.555Z,30.2
2022-08-21T15:16:00.796Z,29
2022-08-21T15:17:15.037Z,29.4
2022-08-21T15:18:29.269Z,30.4
2022-08-21T15:19:43.495Z,30.8
2022-08-21T15:20:57.802Z,30.7
2022-08-21T15:22:12.045Z,29.6
2022-08-21T15:23:26.280Z,28.7
2022-08-21T15:24:40.511Z,28.5
2022-08-21T15:25:54.744Z,28.6
2022-08-21T15:27:09.030Z,28.1
2022-08-21T15:28:23.284Z,27.5
2022-08-21T15:29:37.510Z,28
2022-08-21T15:30:51.747Z,28.7
2022-08-21T15:32:05.981Z,29.7
2022-08-21T15:33:20.289Z,30.2
2022-08-21T15:34:34.523Z,30.2
2022-08-21T15:35:48.761Z,29.9
2022-08-21T15:37:02.990Z,29.8
2022-08-21T15:38:17.226Z,28.8
2022-08-21T15:39:31.529Z,29
2022-08-21T15:40:45.781Z,28.8
2022-08-21T15:45:42.884Z,29
2022-08-21T15:46:57.181Z,29.4
2022-08-21T15:48:10.472Z,29.5
2022-08-21T15:49:24.713Z,29.3
2022-08-21T15:50:39.015Z,29.7
2022-08-21T15:51:53.251Z,30.1
2022-08-21T15:53:07.484Z,31
2022-08-21T15:54:21.725Z,31.5
2022-08-21T15:56:50.257Z,30.7
2022-08-21T15:58:04.491Z,30.2
2022-08-21T15:59:18.728Z,30.7
2022-08-21T16:00:32.962Z,30.8
2022-08-21T16:01:47.191Z,29.9
2022-08-21T16:03:01.501Z,29.5
2022-08-21T16:04:15.746Z,29.1
2022-08-21T16:05:29.974Z,28.6
2022-08-21T16:06:44.202Z,28.4
2022-08-21T16:07:58.426Z,28.5
2022-08-21T16:09:12.744Z,29.1
2022-08-21T16:10:26.985Z,27.9
2022-08-21T16:11:41.221Z,27.3
2022-08-21T16:12:55.445Z,27.1
2022-08-21T16:14:09.679Z,26.4
2022-08-21T16:15:23.977Z,26.6
2022-08-21T16:16:38.215Z,27.2
2022-08-21T16:17:52.459Z,27.5
2022-08-21T16:19:06.753Z,28.2
2022-08-21T16:20:20.037Z,27.6
2022-08-21T16:21:34.288Z,27.1
2022-08-21T16:22:48.526Z,27.7
2022-08-21T16:24:02.757Z,27.9
2022-08-21T16:25:16.980Z,27.2
2022-08-21T16:26:31.285Z,27.2
2022-08-21T16:27:45.527Z,27.5
2022-08-21T16:28:59.751Z,27.4
2022-08-21T16:30:13.986Z,28
2022-08-21T16:31:28.230Z,28.9
2022-08-21T16:32:42.525Z,29.5
2022-08-21T16:33:56.780Z,29.8
2022-08-21T16:35:11.010Z,29.2
2022-08-21T16:36:25.226Z,28.6
2022-08-21T16:37:39.467Z,28.2
2022-08-21T16:38:53.768Z,27.3
2022-08-21T16:40:08.023Z,27.4
2022-08-21T16:41:22.250Z,26.8
2022-08-21T16:42:36.483Z,26.9
2022-08-21T16:43:50.700Z,27.1
2022-08-21T16:45:05.006Z,26.9
2022-08-21T16:46:19.247Z,26.3
2022-08-21T16:47:33.493Z,25.9
2022-08-21T16:48:47.716Z,25.3